• Join FlightAware (Why Join?)
  • Login
  • US Flag 
Gobble Gobble! 
05:39AM EST


 

Airport Tracker/Info


-or-


 

Live Flight TrackerFlight Track Log ✈ CES5897 ✈ 19-Apr-2013 ✈ ZPPP / KMG - ZUYB / YBP

Flight Track Log - Related Links

Times and Time Zones

All times are in EDT time to prevent confusion due to time zone crossing. See the CES5897 flight status page for this flight to view local times or setup timezone preferences in your user account.

Time Position Orientation Groundspeed Altitude Reporting Facility
EDT Latitude Longitude Course Direction KTS MPH feet Rate Location/Type
09:36AM 26.5487 103.5476 21° North  Level Estimated
09:37AM 26.6290 103.5824 21° North  Level Estimated
09:38AM 26.7093 103.6172 21° North  Level Estimated
09:39AM 26.7896 103.6521 21° North  Level Estimated
09:40AM 26.8698 103.6871 21° North  Level Estimated
09:41AM 26.9501 103.7221 21° North  Level Estimated
09:42AM 27.0303 103.7571 21° North  Level Estimated
09:43AM 27.1106 103.7922 21° North  Level Estimated
09:44AM 27.1908 103.8274 21° North  Level Estimated
09:45AM 27.2710 103.8626 21° North  Level Estimated
09:46AM 27.3513 103.8979 21° North  Level Estimated
09:47AM 27.4315 103.9332 21° North  Level Estimated
09:48AM 27.5117 103.9685 21° North  Level Estimated
09:49AM 27.5919 104.0039 21° North  Level Estimated
09:50AM 27.6720 104.0394 21° North  Level Estimated
09:51AM 27.7522 104.0749 21° North  Level Estimated
09:52AM 27.8324 104.1105 21° North  Level Estimated
09:53AM 27.9125 104.1461 21° North  Level Estimated
09:54AM 27.9927 104.1818 21° North  Level Estimated
09:55AM 28.0728 104.2175 21° North  Level Estimated
09:56AM 28.1530 104.2533 21° North  Level Estimated
09:57AM 28.2331 104.2891 22° Northeast  Level Estimated
09:58AM 28.3132 104.3250 22° Northeast  Level Estimated
09:59AM 28.3933 104.3609 22° Northeast  Level Estimated
10:00AM 28.4734 104.3969 22° Northeast  Level Estimated
10:01AM 28.5534 104.4330 22° Northeast  Level Estimated
10:02AM 28.6335 104.4691 22° Northeast  Level Estimated
10:03AM 28.7136 104.5052 22° Northeast  Level Estimated
10:04AM 28.7936 104.5414 22° Northeast  Level Estimated
10:05AM 28.8003 104.5444 22° Northeast  Level Estimated
10:06AM 28.8003 104.5444 120° Southeast  Level Estimated
10:07AM 28.8003 104.5444 120° Southeast  Level Estimated
10:08AM 28.8003 104.5444 120° Southeast  Level Estimated
10:09AM 28.8003 104.5444 120° Southeast  Level Estimated
10:10AM 28.8003 104.5444 120° Southeast  Level Estimated
10:11AM 28.8003 104.5444 120° Southeast  Level Estimated
10:12AM 28.8003 104.5444 120° Southeast  Level Estimated
10:13AM 28.8003 104.5444 120° Southeast  Level Estimated
10:14AM 28.8003 104.5444 120° Southeast  Level Estimated
10:15AM 28.8003 104.5444 120° Southeast  Level Estimated